EVA66 LOWW-RCTP
Flight info
| Callsign | EVA66 |
|---|---|
| Flight time | N/A |
| Altitude | 35000 |
| Route | ADAMA Z648 VEDER L140 ALAMU DCT EPARI DCT NARKA DCT DINRO N743 UDROS DCT CRM DCT ROLIN N644 LAGAS M747 SULEL N449 DUKAN B449 RANAH L750 MERUN G452 LKN A201 LSO A599 LINSO/K0932S1065 A599 POU B330 TAMOT/N0504F350 B330 BIGEX DCT DALOL V631 ENVAR M750 TONGA TONGA1B |
| Aircraft | B789/H-SDE1E2E3FGHIJ2J3J4J5M1RWXY/LB1D1 |
Departure
| Time | 2026-04-22 06:00 |
|---|---|
| Airport | Vienna International Airport (LOWW) |
Arrival
| Time | N/A |
|---|---|
| Airport | Taiwan Taoyuan International Airport (RCTP) |
| Time | Latitude | Longitude | Altitude | Speed | Heading |
|---|---|---|---|---|---|
| 2026-04-22 05:42 | 48.11762 | 16.56119 | 614 ft | 0 kts | 26° |
| 2026-04-22 05:49 | 48.11744 | 16.56106 | 626 ft | 4 kts | 33° |
| 2026-04-22 05:49 | 48.11724 | 16.56081 | 629 ft | 3 kts | 50° |
| 2026-04-22 05:50 | 48.11710 | 16.56048 | 614 ft | 4 kts | 79° |
| 2026-04-22 05:50 | 48.11711 | 16.56016 | 622 ft | 1 kts | 116° |
| 2026-04-22 05:52 | 48.11711 | 16.56017 | 614 ft | 0 kts | 116° |
| 2026-04-22 05:52 | 48.11703 | 16.56040 | 614 ft | 6 kts | 115° |
| 2026-04-22 05:53 | 48.11671 | 16.56142 | 614 ft | 15 kts | 115° |
| 2026-04-22 05:53 | 48.11612 | 16.56324 | 624 ft | 23 kts | 116° |
| 2026-04-22 05:53 | 48.11540 | 16.56547 | 624 ft | 24 kts | 116° |
| 2026-04-22 05:53 | 48.11466 | 16.56775 | 626 ft | 24 kts | 116° |
| 2026-04-22 05:54 | 48.11393 | 16.56997 | 625 ft | 24 kts | 116° |
| 2026-04-22 05:54 | 48.11316 | 16.57233 | 623 ft | 26 kts | 116° |
| 2026-04-22 05:54 | 48.11235 | 16.57485 | 624 ft | 27 kts | 115° |
| 2026-04-22 05:54 | 48.11154 | 16.57732 | 629 ft | 26 kts | 116° |
| 2026-04-22 05:55 | 48.11051 | 16.57922 | 627 ft | 23 kts | 158° |
| 2026-04-22 05:55 | 48.10906 | 16.57991 | 627 ft | 21 kts | 163° |
| 2026-04-22 05:55 | 48.10767 | 16.58053 | 629 ft | 21 kts | 164° |
| 2026-04-22 05:55 | 48.10619 | 16.58117 | 627 ft | 22 kts | 163° |
| 2026-04-22 05:56 | 48.10476 | 16.58118 | 617 ft | 20 kts | 200° |
| 2026-04-22 05:56 | 48.10343 | 16.58101 | 622 ft | 20 kts | 168° |
| 2026-04-22 05:56 | 48.10210 | 16.58149 | 627 ft | 20 kts | 166° |
| 2026-04-22 05:56 | 48.10074 | 16.58207 | 627 ft | 22 kts | 165° |
| 2026-04-22 05:57 | 48.09907 | 16.58276 | 625 ft | 27 kts | 164° |
| 2026-04-22 05:57 | 48.09716 | 16.58357 | 626 ft | 29 kts | 164° |
| 2026-04-22 05:57 | 48.09533 | 16.58435 | 620 ft | 27 kts | 164° |
| 2026-04-22 05:57 | 48.09358 | 16.58510 | 624 ft | 25 kts | 163° |
| 2026-04-22 05:58 | 48.09191 | 16.58581 | 626 ft | 26 kts | 165° |
| 2026-04-22 05:58 | 48.09007 | 16.58658 | 627 ft | 29 kts | 164° |
| 2026-04-22 05:58 | 48.08818 | 16.58783 | 622 ft | 30 kts | 127° |
| 2026-04-22 05:58 | 48.08840 | 16.59046 | 616 ft | 26 kts | 41° |
| 2026-04-22 05:59 | 48.09057 | 16.59052 | 621 ft | 52 kts | 344° |
| 2026-04-22 05:59 | 48.09603 | 16.58820 | 617 ft | 111 kts | 343° |
| 2026-04-22 05:59 | 48.10523 | 16.58429 | 619 ft | 162 kts | 344° |
| 2026-04-22 05:59 | 48.11744 | 16.57926 | 766 ft | 192 kts | 351° |
| 2026-04-22 06:00 | 48.13063 | 16.57398 | 1330 ft | 210 kts | 341° |
| 2026-04-22 06:00 | 48.14483 | 16.56798 | 2219 ft | 215 kts | 353° |
| 2026-04-22 06:00 | 48.15981 | 16.57312 | 2570 ft | 242 kts | 31° |
| 2026-04-22 06:00 | 48.17071 | 16.59309 | 3139 ft | 256 kts | 69° |
| 2026-04-22 06:01 | 48.17214 | 16.61939 | 4094 ft | 259 kts | 94° |
| 2026-04-22 06:01 | 48.16952 | 16.64642 | 4900 ft | 263 kts | 98° |
| 2026-04-22 06:01 | 48.16626 | 16.67350 | 5734 ft | 266 kts | 97° |
| 2026-04-22 06:01 | 48.16347 | 16.70091 | 6560 ft | 268 kts | 97° |
| 2026-04-22 06:02 | 48.15745 | 16.72759 | 7280 ft | 273 kts | 113° |
| 2026-04-22 06:02 | 48.15053 | 16.75425 | 8008 ft | 276 kts | 107° |
| 2026-04-22 06:02 | 48.14419 | 16.78164 | 8762 ft | 280 kts | 108° |
| 2026-04-22 06:02 | 48.13725 | 16.80913 | 9490 ft | 283 kts | 109° |
| 2026-04-22 06:03 | 48.13000 | 16.83673 | 10219 ft | 287 kts | 109° |
| 2026-04-22 06:03 | 48.12250 | 16.86578 | 10342 ft | 313 kts | 110° |
| 2026-04-22 06:03 | 48.11051 | 16.89435 | 10416 ft | 341 kts | 133° |
| 2026-04-22 06:03 | 48.09288 | 16.91974 | 10595 ft | 360 kts | 134° |
| 2026-04-22 06:04 | 48.07475 | 16.94562 | 11395 ft | 360 kts | 134° |
| 2026-04-22 06:04 | 48.05654 | 16.97157 | 12066 ft | 363 kts | 134° |
| 2026-04-22 06:04 | 48.03821 | 16.99789 | 12723 ft | 366 kts | 134° |
| 2026-04-22 06:05 | 48.01088 | 17.05716 | 13865 ft | 365 kts | 104° |
| 2026-04-22 06:05 | 48.00687 | 17.09452 | 14426 ft | 366 kts | 94° |
| 2026-04-22 06:05 | 48.00389 | 17.13241 | 14997 ft | 369 kts | 95° |
| 2026-04-22 06:05 | 48.00111 | 17.16917 | 15540 ft | 372 kts | 94° |
| 2026-04-22 06:06 | 47.99819 | 17.20770 | 16122 ft | 374 kts | 94° |
| 2026-04-22 06:06 | 47.99518 | 17.24666 | 16524 ft | 382 kts | 95° |
| 2026-04-22 06:06 | 47.99209 | 17.28618 | 17052 ft | 384 kts | 95° |
| 2026-04-22 06:06 | 47.98897 | 17.32594 | 17557 ft | 387 kts | 95° |
| 2026-04-22 06:07 | 47.98268 | 17.36515 | 18011 ft | 392 kts | 107° |
| 2026-04-22 06:07 | 47.97411 | 17.40343 | 18483 ft | 395 kts | 106° |
| 2026-04-22 06:07 | 47.96557 | 17.44303 | 18968 ft | 397 kts | 106° |
| 2026-04-22 06:07 | 47.95714 | 17.48185 | 19443 ft | 399 kts | 106° |
| 2026-04-22 06:08 | 47.94844 | 17.52130 | 19904 ft | 402 kts | 107° |
| 2026-04-22 06:08 | 47.93967 | 17.56095 | 20354 ft | 404 kts | 107° |
| 2026-04-22 06:08 | 47.93089 | 17.60090 | 20786 ft | 406 kts | 107° |
| 2026-04-22 06:08 | 47.92204 | 17.64110 | 21216 ft | 409 kts | 107° |
| 2026-04-22 06:09 | 47.91346 | 17.67989 | 21631 ft | 411 kts | 107° |
| 2026-04-22 06:09 | 47.90446 | 17.72042 | 22023 ft | 413 kts | 107° |
| 2026-04-22 06:09 | 47.89542 | 17.76115 | 22398 ft | 415 kts | 107° |
| 2026-04-22 06:09 | 47.88632 | 17.80204 | 22780 ft | 417 kts | 107° |
| 2026-04-22 06:10 | 47.87715 | 17.84316 | 23137 ft | 419 kts | 107° |
| 2026-04-22 06:10 | 47.86794 | 17.88440 | 23477 ft | 421 kts | 107° |
| 2026-04-22 06:10 | 47.85867 | 17.92584 | 23816 ft | 423 kts | 107° |
| 2026-04-22 06:10 | 47.84933 | 17.96750 | 24144 ft | 425 kts | 107° |
| 2026-04-22 06:11 | 47.83787 | 18.00825 | 24413 ft | 428 kts | 114° |
| 2026-04-22 06:11 | 47.82520 | 18.04845 | 24707 ft | 430 kts | 113° |
| 2026-04-22 06:11 | 47.81272 | 18.08845 | 24974 ft | 432 kts | 113° |
| 2026-04-22 06:11 | 47.80007 | 18.12911 | 25267 ft | 434 kts | 113° |
| 2026-04-22 06:12 | 47.78729 | 18.16997 | 25528 ft | 437 kts | 113° |
| 2026-04-22 06:12 | 47.77437 | 18.21105 | 25812 ft | 439 kts | 113° |
| 2026-04-22 06:12 | 47.76138 | 18.25238 | 26072 ft | 441 kts | 113° |
| 2026-04-22 06:12 | 47.74833 | 18.29391 | 26319 ft | 444 kts | 112° |
| 2026-04-22 06:13 | 47.73781 | 18.33682 | 26554 ft | 442 kts | 101° |
| 2026-04-22 06:13 | 47.73305 | 18.38198 | 26768 ft | 443 kts | 94° |
| 2026-04-22 06:13 | 47.72958 | 18.42752 | 26998 ft | 445 kts | 95° |
| 2026-04-22 06:13 | 47.72609 | 18.47322 | 27228 ft | 447 kts | 95° |
| 2026-04-22 06:14 | 47.72264 | 18.51855 | 27435 ft | 449 kts | 95° |
| 2026-04-22 06:14 | 47.71909 | 18.56470 | 27655 ft | 451 kts | 95° |
| 2026-04-22 06:14 | 47.71564 | 18.60919 | 27863 ft | 453 kts | 95° |
| 2026-04-22 06:14 | 47.71200 | 18.65581 | 28070 ft | 455 kts | 95° |
| 2026-04-22 06:15 | 47.70835 | 18.70253 | 28273 ft | 457 kts | 95° |
| 2026-04-22 06:15 | 47.70466 | 18.74951 | 28477 ft | 459 kts | 95° |
| 2026-04-22 06:15 | 47.70094 | 18.79667 | 28672 ft | 461 kts | 95° |
| 2026-04-22 06:15 | 47.69717 | 18.84395 | 28864 ft | 462 kts | 95° |
| 2026-04-22 06:16 | 47.69337 | 18.89151 | 29067 ft | 464 kts | 95° |
| 2026-04-22 06:16 | 47.68953 | 18.93924 | 29253 ft | 466 kts | 95° |
| 2026-04-22 06:16 | 47.68696 | 18.97088 | 29375 ft | 467 kts | 96° |
| 2026-04-22 06:16 | 47.68088 | 19.01835 | 29509 ft | 470 kts | 100° |
| 2026-04-22 06:17 | 47.67203 | 19.08133 | 29763 ft | 471 kts | 100° |
| 2026-04-22 06:17 | 47.66538 | 19.12907 | 29934 ft | 473 kts | 100° |
| 2026-04-22 06:17 | 47.66089 | 19.16144 | 30063 ft | 474 kts | 100° |
| 2026-04-22 06:17 | 47.65427 | 19.20873 | 30228 ft | 475 kts | 100° |
| 2026-04-22 06:18 | 47.64749 | 19.25686 | 30396 ft | 477 kts | 100° |
| 2026-04-22 06:18 | 47.64066 | 19.30511 | 30548 ft | 479 kts | 100° |
| 2026-04-22 06:18 | 47.63381 | 19.35348 | 30721 ft | 480 kts | 100° |
| 2026-04-22 06:18 | 47.62692 | 19.40206 | 30871 ft | 482 kts | 100° |
| 2026-04-22 06:19 | 47.61999 | 19.45074 | 31050 ft | 483 kts | 100° |
| 2026-04-22 06:19 | 47.61300 | 19.49954 | 31210 ft | 485 kts | 100° |
| 2026-04-22 06:19 | 47.60599 | 19.54845 | 31378 ft | 486 kts | 100° |
| 2026-04-22 06:19 | 47.59891 | 19.59762 | 31533 ft | 488 kts | 100° |
| 2026-04-22 06:20 | 47.59180 | 19.64688 | 31683 ft | 489 kts | 100° |
| 2026-04-22 06:20 | 47.58465 | 19.69629 | 31834 ft | 491 kts | 100° |
| 2026-04-22 06:20 | 47.57745 | 19.74579 | 31981 ft | 492 kts | 101° |
| 2026-04-22 06:20 | 47.57021 | 19.79544 | 32142 ft | 494 kts | 101° |
| 2026-04-22 06:21 | 47.56304 | 19.84449 | 32300 ft | 494 kts | 101° |
| 2026-04-22 06:21 | 47.55574 | 19.89421 | 32501 ft | 494 kts | 101° |
| 2026-04-22 06:21 | 47.54842 | 19.94397 | 32688 ft | 494 kts | 101° |
| 2026-04-22 06:21 | 47.54108 | 19.99373 | 32860 ft | 495 kts | 101° |
| 2026-04-22 06:22 | 47.53370 | 20.04348 | 33038 ft | 495 kts | 101° |
| 2026-04-22 06:22 | 47.52631 | 20.09323 | 33212 ft | 495 kts | 101° |
| 2026-04-22 06:22 | 47.51890 | 20.14297 | 33378 ft | 496 kts | 101° |
| 2026-04-22 06:22 | 47.51144 | 20.19284 | 33554 ft | 496 kts | 101° |
| 2026-04-22 06:23 | 47.50397 | 20.24262 | 33710 ft | 496 kts | 101° |
| 2026-04-22 06:23 | 47.49645 | 20.29252 | 33869 ft | 497 kts | 101° |
| 2026-04-22 06:23 | 47.48893 | 20.34238 | 34019 ft | 497 kts | 101° |
| 2026-04-22 06:23 | 47.48137 | 20.39231 | 34173 ft | 498 kts | 101° |
| 2026-04-22 06:24 | 47.46614 | 20.49237 | 34474 ft | 499 kts | 101° |
| 2026-04-22 06:24 | 47.45848 | 20.54243 | 34623 ft | 500 kts | 101° |
| 2026-04-22 06:24 | 47.45080 | 20.59256 | 34762 ft | 501 kts | 101° |
| 2026-04-22 06:25 | 47.44306 | 20.64284 | 34912 ft | 501 kts | 101° |
| 2026-04-22 06:25 | 47.43540 | 20.69246 | 35044 ft | 502 kts | 102° |
| 2026-04-22 06:25 | 47.42762 | 20.74275 | 35156 ft | 503 kts | 102° |
| 2026-04-22 06:26 | 47.41187 | 20.84398 | 35140 ft | 505 kts | 102° |
| 2026-04-22 06:26 | 47.39611 | 20.94467 | 35132 ft | 503 kts | 102° |
| 2026-04-22 06:27 | 47.38024 | 21.04542 | 35134 ft | 504 kts | 102° |
| 2026-04-22 06:27 | 47.36426 | 21.14625 | 35133 ft | 505 kts | 102° |
| 2026-04-22 06:28 | 47.34820 | 21.24698 | 35127 ft | 503 kts | 102° |
| 2026-04-22 06:28 | 47.33208 | 21.34742 | 35127 ft | 503 kts | 102° |
| 2026-04-22 06:29 | 47.31603 | 21.44694 | 35125 ft | 502 kts | 102° |
| 2026-04-22 06:29 | 47.29976 | 21.54712 | 35123 ft | 503 kts | 102° |
| 2026-04-22 06:30 | 47.28337 | 21.64755 | 35124 ft | 504 kts | 102° |
| 2026-04-22 06:30 | 47.26684 | 21.74806 | 35124 ft | 504 kts | 102° |
| 2026-04-22 06:31 | 47.24890 | 21.84769 | 35154 ft | 503 kts | 112° |
| 2026-04-22 06:31 | 47.23310 | 21.89372 | 35161 ft | 505 kts | 123° |
| 2026-04-22 06:31 | 47.21380 | 21.93705 | 35135 ft | 507 kts | 123° |
| 2026-04-22 06:32 | 47.17452 | 22.02327 | 35136 ft | 507 kts | 123° |
| 2026-04-22 06:32 | 47.13576 | 22.10910 | 35137 ft | 508 kts | 123° |
| 2026-04-22 06:33 | 47.09644 | 22.19537 | 35133 ft | 509 kts | 123° |
| 2026-04-22 06:33 | 47.05702 | 22.28180 | 35138 ft | 509 kts | 123° |
| 2026-04-22 06:34 | 47.01755 | 22.36803 | 35137 ft | 510 kts | 123° |
| 2026-04-22 06:34 | 46.97795 | 22.45427 | 35136 ft | 510 kts | 123° |
| 2026-04-22 06:35 | 46.93830 | 22.54035 | 35137 ft | 510 kts | 124° |
| 2026-04-22 06:35 | 46.89856 | 22.62635 | 35137 ft | 510 kts | 124° |
| 2026-04-22 06:36 | 46.85876 | 22.71222 | 35124 ft | 510 kts | 124° |
| 2026-04-22 06:36 | 46.81894 | 22.79789 | 35123 ft | 509 kts | 124° |
| 2026-04-22 06:37 | 46.77905 | 22.88341 | 35123 ft | 510 kts | 124° |
| 2026-04-22 06:37 | 46.73934 | 22.96831 | 35119 ft | 510 kts | 124° |
| 2026-04-22 06:38 | 46.69919 | 23.05384 | 35119 ft | 511 kts | 124° |
| 2026-04-22 06:38 | 46.65900 | 23.13929 | 35120 ft | 512 kts | 124° |
| 2026-04-22 06:39 | 46.61871 | 23.22460 | 35119 ft | 512 kts | 124° |
| 2026-04-22 06:39 | 46.57825 | 23.31006 | 35108 ft | 513 kts | 125° |
| 2026-04-22 06:40 | 46.53769 | 23.39543 | 35107 ft | 513 kts | 125° |
| 2026-04-22 06:40 | 46.49703 | 23.48077 | 35111 ft | 513 kts | 125° |
| 2026-04-22 06:41 | 46.45700 | 23.56453 | 35108 ft | 514 kts | 125° |
| 2026-04-22 06:41 | 46.41645 | 23.64913 | 35107 ft | 515 kts | 126° |
| 2026-04-22 06:42 | 46.37541 | 23.73448 | 35109 ft | 516 kts | 126° |
| 2026-04-22 06:42 | 46.33431 | 23.81971 | 35111 ft | 516 kts | 126° |
| 2026-04-22 06:43 | 46.29316 | 23.90476 | 35111 ft | 517 kts | 126° |
| 2026-04-22 06:43 | 46.25187 | 23.98988 | 35097 ft | 516 kts | 126° |
| 2026-04-22 06:44 | 46.21059 | 24.07467 | 35080 ft | 516 kts | 126° |
| 2026-04-22 06:44 | 46.16927 | 24.15931 | 35075 ft | 516 kts | 126° |
| 2026-04-22 06:45 | 46.12782 | 24.24398 | 35078 ft | 516 kts | 127° |
| 2026-04-22 06:45 | 46.08636 | 24.32838 | 35079 ft | 516 kts | 126° |
| 2026-04-22 06:46 | 46.04511 | 24.41214 | 35067 ft | 515 kts | 126° |
| 2026-04-22 06:46 | 46.00360 | 24.49615 | 35063 ft | 515 kts | 126° |
| 2026-04-22 06:47 | 45.96198 | 24.58017 | 35062 ft | 517 kts | 127° |
| 2026-04-22 06:47 | 45.91995 | 24.66468 | 35062 ft | 519 kts | 127° |
| 2026-04-22 06:48 | 45.87821 | 24.74845 | 35066 ft | 519 kts | 127° |
| 2026-04-22 06:48 | 45.83604 | 24.83279 | 35065 ft | 520 kts | 127° |
| 2026-04-22 06:49 | 45.79384 | 24.91693 | 35061 ft | 521 kts | 127° |
| 2026-04-22 06:49 | 45.75149 | 25.00115 | 35061 ft | 521 kts | 128° |
| 2026-04-22 06:50 | 45.70895 | 25.08546 | 35054 ft | 522 kts | 128° |
| 2026-04-22 06:50 | 45.66673 | 25.16890 | 35047 ft | 520 kts | 128° |
| 2026-04-22 06:51 | 45.62431 | 25.25248 | 35049 ft | 520 kts | 128° |
| 2026-04-22 06:51 | 45.58170 | 25.33623 | 35049 ft | 521 kts | 128° |
| 2026-04-22 06:52 | 45.53900 | 25.41986 | 35051 ft | 521 kts | 128° |
| 2026-04-22 06:52 | 45.49623 | 25.50339 | 35053 ft | 521 kts | 128° |
| 2026-04-22 06:53 | 45.45343 | 25.58675 | 35054 ft | 521 kts | 128° |
| 2026-04-22 06:53 | 45.41056 | 25.66999 | 35053 ft | 521 kts | 128° |
| 2026-04-22 06:54 | 45.36759 | 25.75318 | 35056 ft | 522 kts | 128° |
| 2026-04-22 06:54 | 45.32458 | 25.83622 | 35054 ft | 522 kts | 128° |
| 2026-04-22 06:55 | 45.28169 | 25.91875 | 35053 ft | 522 kts | 128° |
| 2026-04-22 06:55 | 45.23860 | 26.00146 | 35057 ft | 520 kts | 129° |
| 2026-04-22 06:56 | 45.19544 | 26.08407 | 35058 ft | 522 kts | 129° |
| 2026-04-22 06:56 | 45.15206 | 26.16683 | 35061 ft | 524 kts | 129° |
| 2026-04-22 06:57 | 45.10852 | 26.24970 | 35063 ft | 524 kts | 129° |
| 2026-04-22 06:57 | 45.06497 | 26.33229 | 35060 ft | 523 kts | 129° |
| 2026-04-22 06:58 | 45.02166 | 26.41425 | 35074 ft | 524 kts | 130° |
| 2026-04-22 06:58 | 44.97788 | 26.49679 | 35069 ft | 525 kts | 130° |
| 2026-04-22 06:59 | 44.93393 | 26.57947 | 35069 ft | 527 kts | 130° |
| 2026-04-22 06:59 | 44.88983 | 26.66220 | 35076 ft | 526 kts | 130° |
| 2026-04-22 07:00 | 44.84575 | 26.74458 | 35077 ft | 525 kts | 130° |
| 2026-04-22 07:00 | 44.80172 | 26.82669 | 35068 ft | 526 kts | 130° |
| 2026-04-22 07:01 | 44.75739 | 26.90912 | 35074 ft | 528 kts | 130° |
| 2026-04-22 07:01 | 44.71317 | 26.99112 | 35075 ft | 527 kts | 131° |
| 2026-04-22 07:02 | 44.66889 | 27.07295 | 35074 ft | 527 kts | 131° |
| 2026-04-22 07:02 | 44.62442 | 27.15497 | 35066 ft | 527 kts | 131° |
| 2026-04-22 07:03 | 44.57987 | 27.23680 | 35066 ft | 528 kts | 131° |
| 2026-04-22 07:03 | 44.53518 | 27.31876 | 35071 ft | 529 kts | 131° |
| 2026-04-22 07:04 | 44.49040 | 27.40057 | 35071 ft | 528 kts | 131° |
| 2026-04-22 07:04 | 44.44561 | 27.48222 | 35074 ft | 529 kts | 131° |
| 2026-04-22 07:05 | 44.40824 | 27.55014 | 35067 ft | 530 kts | 132° |
| 2026-04-22 07:05 | 44.35575 | 27.64531 | 35078 ft | 532 kts | 132° |
| 2026-04-22 07:06 | 44.31815 | 27.71326 | 35070 ft | 530 kts | 132° |
| 2026-04-22 07:06 | 44.27302 | 27.79466 | 35070 ft | 530 kts | 132° |
| 2026-04-22 07:07 | 44.22778 | 27.87595 | 35070 ft | 531 kts | 132° |
| 2026-04-22 07:07 | 44.18239 | 27.95735 | 35078 ft | 532 kts | 133° |
| 2026-04-22 07:08 | 44.13694 | 28.03858 | 35073 ft | 532 kts | 133° |
| 2026-04-22 07:08 | 44.09128 | 28.11999 | 35074 ft | 532 kts | 133° |
| 2026-04-22 07:09 | 44.04562 | 28.20116 | 35077 ft | 532 kts | 133° |
| 2026-04-22 07:09 | 44.00008 | 28.28191 | 35068 ft | 530 kts | 133° |
| 2026-04-22 07:10 | 43.95455 | 28.36239 | 35072 ft | 529 kts | 133° |
| 2026-04-22 07:10 | 43.90902 | 28.44266 | 35065 ft | 529 kts | 133° |
| 2026-04-22 07:11 | 43.86367 | 28.52238 | 35065 ft | 530 kts | 133° |
| 2026-04-22 07:11 | 43.81800 | 28.60247 | 35070 ft | 529 kts | 133° |
| 2026-04-22 07:12 | 43.77224 | 28.68246 | 35062 ft | 529 kts | 133° |
| 2026-04-22 07:12 | 43.72655 | 28.76215 | 35075 ft | 527 kts | 133° |
| 2026-04-22 07:13 | 43.68221 | 28.84283 | 35084 ft | 528 kts | 130° |
| 2026-04-22 07:13 | 43.63888 | 28.92511 | 35080 ft | 530 kts | 130° |
| 2026-04-22 07:14 | 43.59600 | 29.00719 | 35080 ft | 529 kts | 130° |
| 2026-04-22 07:14 | 43.55278 | 29.08928 | 35081 ft | 528 kts | 130° |
| 2026-04-22 07:15 | 43.50961 | 29.17119 | 35077 ft | 528 kts | 130° |
| 2026-04-22 07:15 | 43.46637 | 29.25301 | 35087 ft | 528 kts | 130° |
| 2026-04-22 07:16 | 43.42311 | 29.33457 | 35087 ft | 527 kts | 130° |
| 2026-04-22 07:16 | 43.37988 | 29.41590 | 35077 ft | 527 kts | 131° |
| 2026-04-22 07:17 | 43.33651 | 29.49724 | 35077 ft | 528 kts | 131° |
| 2026-04-22 07:17 | 43.29302 | 29.57862 | 35084 ft | 529 kts | 131° |
| 2026-04-22 07:18 | 43.24936 | 29.66006 | 35078 ft | 529 kts | 131° |
| 2026-04-22 07:18 | 43.20577 | 29.74116 | 35074 ft | 526 kts | 131° |
| 2026-04-22 07:19 | 43.16254 | 29.82136 | 35062 ft | 526 kts | 131° |
| 2026-04-22 07:19 | 43.11907 | 29.90180 | 35059 ft | 524 kts | 131° |
| 2026-04-22 07:20 | 43.07556 | 29.98208 | 35060 ft | 525 kts | 131° |
| 2026-04-22 07:20 | 43.03198 | 30.06228 | 35053 ft | 525 kts | 131° |
| 2026-04-22 07:21 | 42.98841 | 30.14225 | 35056 ft | 524 kts | 131° |
| 2026-04-22 07:21 | 42.94483 | 30.22204 | 35053 ft | 522 kts | 131° |
| 2026-04-22 07:22 | 42.90127 | 30.30153 | 35055 ft | 524 kts | 131° |
| 2026-04-22 07:22 | 42.85779 | 30.38071 | 35056 ft | 525 kts | 131° |
| 2026-04-22 07:23 | 42.81390 | 30.46036 | 35042 ft | 524 kts | 131° |
| 2026-04-22 07:23 | 42.77006 | 30.53979 | 35042 ft | 522 kts | 131° |
| 2026-04-22 07:24 | 42.73323 | 30.62519 | 35063 ft | 532 kts | 112° |
| 2026-04-22 07:24 | 42.71144 | 30.72195 | 35042 ft | 536 kts | 109° |
| 2026-04-22 07:25 | 42.69050 | 30.81914 | 35044 ft | 536 kts | 109° |
| 2026-04-22 07:25 | 42.66900 | 30.91641 | 35045 ft | 538 kts | 109° |
| 2026-04-22 07:26 | 42.64774 | 31.01353 | 35046 ft | 536 kts | 109° |
| 2026-04-22 07:26 | 42.62636 | 31.10991 | 35032 ft | 535 kts | 109° |
| 2026-04-22 07:27 | 42.60495 | 31.20652 | 35029 ft | 534 kts | 110° |
| 2026-04-22 07:27 | 42.58336 | 31.30315 | 35028 ft | 536 kts | 110° |
| 2026-04-22 07:28 | 42.55086 | 31.44811 | 35033 ft | 535 kts | 109° |
| 2026-04-22 07:28 | 42.52906 | 31.54464 | 35035 ft | 535 kts | 110° |
| 2026-04-22 07:29 | 42.50726 | 31.64095 | 35035 ft | 535 kts | 110° |
| 2026-04-22 07:29 | 42.48538 | 31.73702 | 35038 ft | 536 kts | 110° |
| 2026-04-22 07:30 | 42.46338 | 31.83337 | 35033 ft | 535 kts | 110° |
| 2026-04-22 07:30 | 42.44128 | 31.92953 | 35015 ft | 534 kts | 110° |
| 2026-04-22 07:31 | 42.41930 | 32.02495 | 35012 ft | 534 kts | 110° |
| 2026-04-22 07:31 | 42.39707 | 32.12091 | 35010 ft | 534 kts | 110° |
| 2026-04-22 07:32 | 42.37480 | 32.21669 | 35003 ft | 534 kts | 110° |
| 2026-04-22 07:32 | 42.35243 | 32.31247 | 35011 ft | 534 kts | 110° |
| 2026-04-22 07:33 | 42.32996 | 32.40827 | 35015 ft | 535 kts | 110° |
| 2026-04-22 07:33 | 42.30732 | 32.50438 | 35012 ft | 536 kts | 110° |
| 2026-04-22 07:34 | 42.28459 | 32.60048 | 35011 ft | 535 kts | 110° |
| 2026-04-22 07:34 | 42.26203 | 32.69544 | 34986 ft | 534 kts | 110° |
| 2026-04-22 07:35 | 42.23927 | 32.79086 | 34982 ft | 533 kts | 110° |
| 2026-04-22 07:35 | 42.21642 | 32.88620 | 34984 ft | 534 kts | 110° |
| 2026-04-22 07:36 | 42.19348 | 32.98161 | 34983 ft | 534 kts | 111° |
| 2026-04-22 07:36 | 42.17041 | 33.07706 | 34986 ft | 536 kts | 111° |
| 2026-04-22 07:37 | 42.14723 | 33.17269 | 34976 ft | 535 kts | 111° |